EWG4MH EGCC-EGJJ
Flight info
| Callsign | EWG4MH |
|---|---|
| Flight time | N/A |
| Altitude | 23000 |
| Route | ASMIM DCT NOKIN P17 BEPHE/N0408F220 DCT OSSEP DCT ELNIF DCT ZESPE DCT DAWLY DCT ABBEW/N0403F210 N90 ENHEL N862 SKERY |
| Aircraft | A320/M-SDE3FGHIRWY/LB1 |
Departure
| Time | 2026-05-03 20:49 |
|---|---|
| Airport | Manchester Airport (EGCC) |
Arrival
| Time | N/A |
|---|---|
| Airport | Jersey Airport (EGJJ) |
| Time | Latitude | Longitude | Altitude | Speed | Heading |
|---|---|---|---|---|---|
| 2026-05-03 20:15 | 53.35884 | -2.27533 | 233 ft | 0 kts | 97° |
| 2026-05-03 20:25 | 53.35884 | -2.27531 | 233 ft | 0 kts | 96° |
| 2026-05-03 20:36 | 53.35884 | -2.27536 | 233 ft | 3 kts | 96° |
| 2026-05-03 20:36 | 53.35889 | -2.27580 | 217 ft | 4 kts | 107° |
| 2026-05-03 20:36 | 53.35899 | -2.27620 | 236 ft | 4 kts | 130° |
| 2026-05-03 20:37 | 53.35918 | -2.27640 | 233 ft | 2 kts | 184° |
| 2026-05-03 20:37 | 53.35924 | -2.27639 | 233 ft | 0 kts | 186° |
| 2026-05-03 20:40 | 53.35896 | -2.27644 | 233 ft | 4 kts | 186° |
| 2026-05-03 20:40 | 53.35867 | -2.27649 | 235 ft | 6 kts | 186° |
| 2026-05-03 20:41 | 53.35793 | -2.27662 | 233 ft | 12 kts | 186° |
| 2026-05-03 20:41 | 53.35727 | -2.27638 | 233 ft | 5 kts | 160° |
| 2026-05-03 20:41 | 53.35726 | -2.27638 | 233 ft | 0 kts | 160° |
| 2026-05-03 20:41 | 53.35684 | -2.27613 | 233 ft | 13 kts | 167° |
| 2026-05-03 20:42 | 53.35612 | -2.27670 | 233 ft | 11 kts | 224° |
| 2026-05-03 20:42 | 53.35540 | -2.27786 | 233 ft | 21 kts | 223° |
| 2026-05-03 20:42 | 53.35435 | -2.27955 | 233 ft | 20 kts | 222° |
| 2026-05-03 20:42 | 53.35341 | -2.28107 | 233 ft | 18 kts | 223° |
| 2026-05-03 20:43 | 53.35258 | -2.28249 | 233 ft | 16 kts | 228° |
| 2026-05-03 20:43 | 53.35190 | -2.28386 | 233 ft | 15 kts | 232° |
| 2026-05-03 20:43 | 53.35130 | -2.28511 | 233 ft | 13 kts | 231° |
| 2026-05-03 20:43 | 53.35057 | -2.28664 | 233 ft | 24 kts | 231° |
| 2026-05-03 20:44 | 53.34944 | -2.28865 | 233 ft | 23 kts | 227° |
| 2026-05-03 20:44 | 53.34840 | -2.29047 | 233 ft | 21 kts | 228° |
| 2026-05-03 20:44 | 53.34753 | -2.29222 | 233 ft | 19 kts | 231° |
| 2026-05-03 20:44 | 53.34670 | -2.29332 | 233 ft | 0 kts | 203° |
| 2026-05-03 20:47 | 53.34667 | -2.29333 | 233 ft | 2 kts | 199° |
| 2026-05-03 20:47 | 53.34616 | -2.29342 | 233 ft | 12 kts | 178° |
| 2026-05-03 20:48 | 53.34536 | -2.29244 | 233 ft | 8 kts | 94° |
| 2026-05-03 20:48 | 53.34687 | -2.28920 | 233 ft | 70 kts | 51° |
| 2026-05-03 20:48 | 53.35126 | -2.28012 | 230 ft | 128 kts | 51° |
| 2026-05-03 20:48 | 53.35773 | -2.26711 | 478 ft | 151 kts | 49° |
| 2026-05-03 20:49 | 53.36439 | -2.25370 | 1213 ft | 149 kts | 50° |
| 2026-05-03 20:49 | 53.37118 | -2.23951 | 1654 ft | 166 kts | 52° |
| 2026-05-03 20:49 | 53.37869 | -2.22354 | 2045 ft | 183 kts | 51° |
| 2026-05-03 20:49 | 53.38813 | -2.20783 | 2351 ft | 206 kts | 29° |
| 2026-05-03 20:50 | 53.40278 | -2.20237 | 2829 ft | 228 kts | 360° |
| 2026-05-03 20:50 | 53.41857 | -2.20967 | 3469 ft | 246 kts | 334° |
| 2026-05-03 20:50 | 53.43121 | -2.23030 | 3953 ft | 265 kts | 300° |
| 2026-05-03 20:50 | 53.43595 | -2.26044 | 4464 ft | 272 kts | 277° |
| 2026-05-03 20:51 | 53.43760 | -2.29206 | 4971 ft | 272 kts | 277° |
| 2026-05-03 20:51 | 53.44110 | -2.32311 | 5436 ft | 271 kts | 289° |
| 2026-05-03 20:51 | 53.44898 | -2.35180 | 5893 ft | 271 kts | 298° |
| 2026-05-03 20:51 | 53.45785 | -2.37982 | 6419 ft | 273 kts | 298° |
| 2026-05-03 20:52 | 53.46616 | -2.40852 | 6899 ft | 275 kts | 288° |
| 2026-05-03 20:52 | 53.46894 | -2.44020 | 7401 ft | 277 kts | 266° |
| 2026-05-03 20:52 | 53.46606 | -2.47175 | 7901 ft | 278 kts | 259° |
| 2026-05-03 20:52 | 53.46245 | -2.50415 | 8423 ft | 279 kts | 259° |
| 2026-05-03 20:53 | 53.45886 | -2.53622 | 8946 ft | 281 kts | 259° |
| 2026-05-03 20:53 | 53.45534 | -2.56803 | 9470 ft | 282 kts | 259° |
| 2026-05-03 20:53 | 53.45173 | -2.60050 | 9992 ft | 284 kts | 258° |
| 2026-05-03 20:53 | 53.44479 | -2.63154 | 10481 ft | 288 kts | 238° |
| 2026-05-03 20:54 | 53.43168 | -2.65690 | 10969 ft | 291 kts | 218° |
| 2026-05-03 20:54 | 53.39423 | -2.68543 | 11985 ft | 308 kts | 200° |
| 2026-05-03 20:54 | 53.37374 | -2.69813 | 12511 ft | 320 kts | 201° |
| 2026-05-03 20:55 | 53.35254 | -2.71138 | 13034 ft | 330 kts | 201° |
| 2026-05-03 20:55 | 53.33071 | -2.72508 | 13576 ft | 340 kts | 201° |
| 2026-05-03 20:55 | 53.30828 | -2.73915 | 14075 ft | 348 kts | 201° |
| 2026-05-03 20:55 | 53.28532 | -2.75350 | 14567 ft | 356 kts | 201° |
| 2026-05-03 20:56 | 53.26178 | -2.76818 | 15063 ft | 363 kts | 201° |
| 2026-05-03 20:56 | 53.23797 | -2.78298 | 15563 ft | 370 kts | 201° |
| 2026-05-03 20:56 | 53.21362 | -2.79809 | 16070 ft | 376 kts | 201° |
| 2026-05-03 20:56 | 53.18893 | -2.81338 | 16589 ft | 381 kts | 201° |
| 2026-05-03 20:57 | 53.16391 | -2.82884 | 17117 ft | 386 kts | 200° |
| 2026-05-03 20:57 | 53.13865 | -2.84442 | 17654 ft | 389 kts | 200° |
| 2026-05-03 20:57 | 53.11314 | -2.86010 | 18199 ft | 392 kts | 200° |
| 2026-05-03 20:57 | 53.08667 | -2.87162 | 18678 ft | 395 kts | 189° |
| 2026-05-03 20:58 | 53.05911 | -2.87543 | 18898 ft | 400 kts | 179° |
| 2026-05-03 20:58 | 53.03147 | -2.87093 | 18955 ft | 400 kts | 171° |
| 2026-05-03 20:58 | 53.01329 | -2.86581 | 18956 ft | 400 kts | 171° |
| 2026-05-03 20:58 | 52.98591 | -2.85816 | 18954 ft | 399 kts | 171° |
| 2026-05-03 20:59 | 52.95854 | -2.85061 | 18955 ft | 398 kts | 171° |
| 2026-05-03 20:59 | 52.93129 | -2.84318 | 18956 ft | 395 kts | 171° |
| 2026-05-03 20:59 | 52.90409 | -2.83584 | 18956 ft | 396 kts | 171° |
| 2026-05-03 20:59 | 52.87686 | -2.82856 | 18955 ft | 396 kts | 172° |
| 2026-05-03 21:00 | 52.84972 | -2.82137 | 18951 ft | 396 kts | 172° |
| 2026-05-03 21:00 | 52.83172 | -2.81660 | 18953 ft | 395 kts | 171° |
| 2026-05-03 21:00 | 52.79548 | -2.80690 | 18946 ft | 394 kts | 171° |
| 2026-05-03 21:00 | 52.76835 | -2.79959 | 18949 ft | 395 kts | 172° |
| 2026-05-03 21:01 | 52.74122 | -2.79226 | 18948 ft | 396 kts | 171° |
| 2026-05-03 21:01 | 52.71404 | -2.78494 | 18948 ft | 395 kts | 171° |
| 2026-05-03 21:01 | 52.68693 | -2.77768 | 18948 ft | 394 kts | 171° |
| 2026-05-03 21:01 | 52.65988 | -2.77047 | 18946 ft | 394 kts | 171° |
| 2026-05-03 21:02 | 52.63281 | -2.76327 | 18947 ft | 394 kts | 171° |
| 2026-05-03 21:02 | 52.60557 | -2.75896 | 18948 ft | 393 kts | 180° |
| 2026-05-03 21:02 | 52.57821 | -2.76083 | 18947 ft | 393 kts | 183° |
| 2026-05-03 21:02 | 52.55089 | -2.76328 | 18948 ft | 393 kts | 183° |
| 2026-05-03 21:03 | 52.52353 | -2.76568 | 18939 ft | 393 kts | 183° |
| 2026-05-03 21:03 | 52.49621 | -2.76806 | 18943 ft | 393 kts | 183° |
| 2026-05-03 21:03 | 52.46892 | -2.77042 | 18943 ft | 392 kts | 183° |
| 2026-05-03 21:03 | 52.44172 | -2.77279 | 18941 ft | 391 kts | 183° |
| 2026-05-03 21:04 | 52.41457 | -2.77512 | 18944 ft | 391 kts | 183° |
| 2026-05-03 21:04 | 52.38741 | -2.77740 | 18944 ft | 391 kts | 183° |
| 2026-05-03 21:04 | 52.36061 | -2.77961 | 18947 ft | 391 kts | 183° |
| 2026-05-03 21:04 | 52.33345 | -2.78188 | 18945 ft | 391 kts | 183° |
| 2026-05-03 21:05 | 52.30628 | -2.78421 | 18942 ft | 391 kts | 183° |
| 2026-05-03 21:05 | 52.27914 | -2.78655 | 18942 ft | 391 kts | 183° |
| 2026-05-03 21:05 | 52.25200 | -2.78891 | 18942 ft | 391 kts | 183° |
| 2026-05-03 21:05 | 52.22490 | -2.79126 | 18940 ft | 389 kts | 183° |
| 2026-05-03 21:06 | 52.19792 | -2.79359 | 18942 ft | 388 kts | 183° |
| 2026-05-03 21:06 | 52.17095 | -2.79591 | 18942 ft | 388 kts | 183° |
| 2026-05-03 21:06 | 52.14399 | -2.79825 | 18935 ft | 388 kts | 183° |
| 2026-05-03 21:06 | 52.11703 | -2.80061 | 18937 ft | 388 kts | 183° |
| 2026-05-03 21:07 | 52.09009 | -2.80292 | 18934 ft | 388 kts | 183° |
| 2026-05-03 21:07 | 52.06312 | -2.80518 | 18934 ft | 388 kts | 183° |
| 2026-05-03 21:07 | 52.03616 | -2.80741 | 18934 ft | 388 kts | 183° |
| 2026-05-03 21:07 | 52.00919 | -2.80966 | 18933 ft | 388 kts | 183° |
| 2026-05-03 21:08 | 51.98233 | -2.81190 | 18935 ft | 386 kts | 183° |
| 2026-05-03 21:08 | 51.95553 | -2.81412 | 18953 ft | 386 kts | 183° |
| 2026-05-03 21:08 | 51.92873 | -2.81636 | 18957 ft | 385 kts | 183° |
| 2026-05-03 21:08 | 51.90193 | -2.81864 | 18961 ft | 386 kts | 183° |
| 2026-05-03 21:09 | 51.87514 | -2.82094 | 18964 ft | 385 kts | 183° |
| 2026-05-03 21:09 | 51.84839 | -2.82351 | 18968 ft | 385 kts | 185° |
| 2026-05-03 21:09 | 51.82171 | -2.82782 | 18972 ft | 385 kts | 187° |
| 2026-05-03 21:09 | 51.79515 | -2.83351 | 18973 ft | 385 kts | 188° |
| 2026-05-03 21:10 | 51.76865 | -2.83982 | 18972 ft | 385 kts | 189° |
| 2026-05-03 21:10 | 51.74220 | -2.84615 | 18974 ft | 384 kts | 188° |
| 2026-05-03 21:10 | 51.71581 | -2.85230 | 18976 ft | 383 kts | 188° |
| 2026-05-03 21:10 | 51.68940 | -2.85830 | 18975 ft | 383 kts | 188° |
| 2026-05-03 21:11 | 51.66298 | -2.86412 | 18975 ft | 383 kts | 188° |
| 2026-05-03 21:11 | 51.63658 | -2.86977 | 18973 ft | 383 kts | 188° |
| 2026-05-03 21:11 | 51.61016 | -2.87532 | 18967 ft | 383 kts | 188° |
| 2026-05-03 21:11 | 51.58374 | -2.88087 | 18964 ft | 383 kts | 188° |
| 2026-05-03 21:12 | 51.55739 | -2.88728 | 18960 ft | 383 kts | 192° |
| 2026-05-03 21:12 | 51.53189 | -2.89976 | 18959 ft | 384 kts | 200° |
| 2026-05-03 21:12 | 51.50695 | -2.91486 | 18950 ft | 382 kts | 200° |
| 2026-05-03 21:12 | 51.48208 | -2.92985 | 18944 ft | 382 kts | 200° |
| 2026-05-03 21:13 | 51.45720 | -2.94479 | 18925 ft | 382 kts | 200° |
| 2026-05-03 21:13 | 51.43234 | -2.95971 | 18925 ft | 382 kts | 200° |
| 2026-05-03 21:13 | 51.40746 | -2.97463 | 18924 ft | 382 kts | 200° |
| 2026-05-03 21:13 | 51.38257 | -2.98952 | 18924 ft | 382 kts | 200° |
| 2026-05-03 21:14 | 51.36458 | -3.00025 | 18923 ft | 382 kts | 200° |